sensor_id;sensor_type;location;lat;lon;timestamp;pressure;altitude;pressure_sealevel;temperature;humidity
61880;BME280;47817;52.798;27.544;2022-09-09T00:03:55;1030;;;10.3;53.2
61880;BME280;47817;52.798;27.544;2022-09-09T00:08:29;1030;;;10.3;53.3
61880;BME280;47817;52.798;27.544;2022-09-09T00:13:34;1029.9;;;10.2;53.3
61880;BME280;47817;52.798;27.544;2022-09-09T00:19:02;1030;;;10.2;53.3
61880;BME280;47817;52.798;27.544;2022-09-09T00:23:57;1030;;;10.2;53.2
61880;BME280;47817;52.798;27.544;2022-09-09T00:28:44;1030;;;10.1;53.6
61880;BME280;47817;52.798;27.544;2022-09-09T00:33:45;1030;;;10.1;54.3
61880;BME280;47817;52.798;27.544;2022-09-09T00:38:59;1029.9;;;10;54.8
61880;BME280;47817;52.798;27.544;2022-09-09T00:43:57;1030;;;10;55.1
61880;BME280;47817;52.798;27.544;2022-09-09T00:48:48;1030;;;10;54.2
61880;BME280;47817;52.798;27.544;2022-09-09T00:58:27;1030.1;;;9.9;54.6
61880;BME280;47817;52.798;27.544;2022-09-09T01:03:21;1030.1;;;9.8;55.1
61880;BME280;47817;52.798;27.544;2022-09-09T01:13:24;1030;;;9.7;56.1
61880;BME280;47817;52.798;27.544;2022-09-09T01:18:51;1030;;;9.6;56.3
61880;BME280;47817;52.798;27.544;2022-09-09T01:24:12;1030;;;9.5;56.6
61880;BME280;47817;52.798;27.544;2022-09-09T01:28:39;1030;;;9.4;56.5
61880;BME280;47817;52.798;27.544;2022-09-09T01:33:57;1030;;;9.4;56.2
61880;BME280;47817;52.798;27.544;2022-09-09T01:38:51;1030;;;9.4;56.3
61880;BME280;47817;52.798;27.544;2022-09-09T01:43:27;1030;;;9.3;56.2
61880;BME280;47817;52.798;27.544;2022-09-09T01:48:28;1030;;;9.3;56.3
61880;BME280;47817;52.798;27.544;2022-09-09T01:53:21;1029.9;;;9.2;57.7
61880;BME280;47817;52.798;27.544;2022-09-09T02:00:02;1029.8;;;9.1;57.7
61880;BME280;47817;52.798;27.544;2022-09-09T02:03:41;1029.8;;;9.1;57.4
61880;BME280;47817;52.798;27.544;2022-09-09T02:08:46;1029.8;;;9.1;57.3
61880;BME280;47817;52.798;27.544;2022-09-09T02:13:46;1029.7;;;9.1;57.3
61880;BME280;47817;52.798;27.544;2022-09-09T02:18:51;1029.8;;;9.1;57.2
61880;BME280;47817;52.798;27.544;2022-09-09T02:23:37;1029.9;;;9.1;57.2
61880;BME280;47817;52.798;27.544;2022-09-09T02:28:43;1029.9;;;9.1;57.9
61880;BME280;47817;52.798;27.544;2022-09-09T02:33:38;1029.9;;;9.1;58.4
61880;BME280;47817;52.798;27.544;2022-09-09T02:38:25;1030;;;9.1;58.6
61880;BME280;47817;52.798;27.544;2022-09-09T02:43:31;1030;;;9;58.9
61880;BME280;47817;52.798;27.544;2022-09-09T02:49:02;1029.9;;;9;59.1
61880;BME280;47817;52.798;27.544;2022-09-09T02:54:30;1029.8;;;9;58
61880;BME280;47817;52.798;27.544;2022-09-09T02:58:17;1029.8;;;8.9;58.4
61880;BME280;47817;52.798;27.544;2022-09-09T03:03:39;1029.9;;;8.9;59.3
61880;BME280;47817;52.798;27.544;2022-09-09T03:08:47;1029.9;;;8.9;59.8
61880;BME280;47817;52.798;27.544;2022-09-09T03:13:57;1029.8;;;8.9;60.2
61880;BME280;47817;52.798;27.544;2022-09-09T03:18:27;1029.9;;;8.9;60.6
61880;BME280;47817;52.798;27.544;2022-09-09T03:23:17;1029.9;;;8.9;60.6
61880;BME280;47817;52.798;27.544;2022-09-09T03:28:33;1030;;;8.9;60.1
61880;BME280;47817;52.798;27.544;2022-09-09T03:33:27;1030;;;8.8;59.9
61880;BME280;47817;52.798;27.544;2022-09-09T03:38:31;1030;;;8.8;59.8
61880;BME280;47817;52.798;27.544;2022-09-09T03:43:33;1030;;;8.8;60
61880;BME280;47817;52.798;27.544;2022-09-09T03:48:49;1030;;;8.8;60
61880;BME280;47817;52.798;27.544;2022-09-09T03:53:47;1030.1;;;8.8;59.9
61880;BME280;47817;52.798;27.544;2022-09-09T03:58:57;1030.2;;;8.8;60.8
61880;BME280;47817;52.798;27.544;2022-09-09T04:03:49;1030.2;;;8.8;60.7
61880;BME280;47817;52.798;27.544;2022-09-09T04:08:57;1030.3;;;8.9;60.8
61880;BME280;47817;52.798;27.544;2022-09-09T04:13:59;1030.3;;;8.9;60.6
61880;BME280;47817;52.798;27.544;2022-09-09T04:18:26;1030.4;;;8.9;60.5
61880;BME280;47817;52.798;27.544;2022-09-09T04:23:33;1030.4;;;8.7;60.8
61880;BME280;47817;52.798;27.544;2022-09-09T04:28:49;1030.2;;;8.8;61.4
61880;BME280;47817;52.798;27.544;2022-09-09T04:34:01;1030.1;;;8.9;61.3
61880;BME280;47817;52.798;27.544;2022-09-09T04:38:43;1030;;;9.1;61.1
61880;BME280;47817;52.798;27.544;2022-09-09T04:43:47;1030.1;;;9.2;60.9
61880;BME280;47817;52.798;27.544;2022-09-09T04:48:48;1030.1;;;9.3;60.7
61880;BME280;47817;52.798;27.544;2022-09-09T04:53:35;1030.1;;;9.3;60.3
61880;BME280;47817;52.798;27.544;2022-09-09T04:58:38;1030;;;9.4;60
61880;BME280;47817;52.798;27.544;2022-09-09T05:03:47;1030.1;;;9.5;60.1
61880;BME280;47817;52.798;27.544;2022-09-09T05:08:17;1030;;;9.6;60.3
61880;BME280;47817;52.798;27.544;2022-09-09T05:13:27;1030;;;9.8;60
61880;BME280;47817;52.798;27.544;2022-09-09T05:18:27;1030;;;9.9;59.6
61880;BME280;47817;52.798;27.544;2022-09-09T05:24:03;1030;;;9.9;59.5
61880;BME280;47817;52.798;27.544;2022-09-09T05:28:51;1030;;;10.1;59
61880;BME280;47817;52.798;27.544;2022-09-09T05:33:27;1030.1;;;10.3;58.4
61880;BME280;47817;52.798;27.544;2022-09-09T05:38:41;1030;;;10.3;58.2
61880;BME280;47817;52.798;27.544;2022-09-09T05:44:03;1030;;;10.3;58.3
61880;BME280;47817;52.798;27.544;2022-09-09T05:49:03;1030.1;;;10.4;57.9
61880;BME280;47817;52.798;27.544;2022-09-09T05:53:17;1030.1;;;10.5;57.8
61880;BME280;47817;52.798;27.544;2022-09-09T05:58:27;1030.2;;;10.6;57.9
61880;BME280;47817;52.798;27.544;2022-09-09T06:03:36;1030.2;;;10.7;57.7
61880;BME280;47817;52.798;27.544;2022-09-09T06:08:45;1030.2;;;11;57.2
61880;BME280;47817;52.798;27.544;2022-09-09T06:13:38;1030.2;;;11.3;56.6
61880;BME280;47817;52.798;27.544;2022-09-09T06:18:27;1030.2;;;11.5;56.3
61880;BME280;47817;52.798;27.544;2022-09-09T06:23:27;1030.2;;;11.7;56
61880;BME280;47817;52.798;27.544;2022-09-09T06:29:02;1030.2;;;11.9;55.6
61880;BME280;47817;52.798;27.544;2022-09-09T06:33:48;1030.1;;;12.2;54.8
61880;BME280;47817;52.798;27.544;2022-09-09T06:39:04;1030.1;;;12.6;53.8
61880;BME280;47817;52.798;27.544;2022-09-09T06:44:03;1030.1;;;12.9;52.9
61880;BME280;47817;52.798;27.544;2022-09-09T06:48:39;1030.2;;;13.2;52.1
61880;BME280;47817;52.798;27.544;2022-09-09T06:53:38;1030.2;;;13.4;51.2
61880;BME280;47817;52.798;27.544;2022-09-09T06:58:51;1030.2;;;13.9;50.3
61880;BME280;47817;52.798;27.544;2022-09-09T07:04:04;1030.1;;;14.5;48.9
61880;BME280;47817;52.798;27.544;2022-09-09T07:08:53;1030;;;14.5;47.7
61880;BME280;47817;52.798;27.544;2022-09-09T07:13:51;1030.1;;;14.8;47
61880;BME280;47817;52.798;27.544;2022-09-09T07:18:51;1030;;;15.1;46
61880;BME280;47817;52.798;27.544;2022-09-09T07:23:40;1030;;;15.5;45.2
61880;BME280;47817;52.798;27.544;2022-09-09T07:28:17;1030;;;15.8;44.3
61880;BME280;47817;52.798;27.544;2022-09-09T07:33:49;1030.1;;;15.9;44.1
61880;BME280;47817;52.798;27.544;2022-09-09T07:38:18;1030.1;;;16;43.7
61880;BME280;47817;52.798;27.544;2022-09-09T07:43:27;1030.1;;;16;43
61880;BME280;47817;52.798;27.544;2022-09-09T07:48:38;1030.1;;;16.1;42.4
61880;BME280;47817;52.798;27.544;2022-09-09T07:54:06;1030.2;;;16.3;41.8
61880;BME280;47817;52.798;27.544;2022-09-09T07:58:52;1030.2;;;16.4;41.2
61880;BME280;47817;52.798;27.544;2022-09-09T08:03:38;1030.2;;;16.5;40.7
61880;BME280;47817;52.798;27.544;2022-09-09T08:08:41;1030.2;;;16.7;40.2
61880;BME280;47817;52.798;27.544;2022-09-09T08:14:06;1030.1;;;16.8;39.7
61880;BME280;47817;52.798;27.544;2022-09-09T08:19:05;1030.1;;;16.9;39.3
61880;BME280;47817;52.798;27.544;2022-09-09T08:23:17;1030.1;;;17;38.9
61880;BME280;47817;52.798;27.544;2022-09-09T08:28:27;1030.1;;;17.1;38.5
61880;BME280;47817;52.798;27.544;2022-09-09T08:33:17;1030.1;;;17.2;37.6
61880;BME280;47817;52.798;27.544;2022-09-09T08:38:17;1030;;;17.4;37.6
61880;BME280;47817;52.798;27.544;2022-09-09T08:43:37;1030;;;17.8;36.8
61880;BME280;47817;52.798;27.544;2022-09-09T08:53:55;1029.9;;;18.1;35.9
61880;BME280;47817;52.798;27.544;2022-09-09T08:59:07;1029.9;;;18.3;35.7
61880;BME280;47817;52.798;27.544;2022-09-09T09:03:30;1029.9;;;18.7;35.3
61880;BME280;47817;52.798;27.544;2022-09-09T09:14:01;1029.8;;;18.9;34.4
61880;BME280;47817;52.798;27.544;2022-09-09T09:18:27;1029.8;;;18.9;34.4
